createdAt,value
2022-09-07T00:01:07.322Z,1.35
2022-09-07T00:04:09.867Z,1.17
2022-09-07T00:07:12.347Z,1.58
2022-09-07T00:10:16.722Z,1.33
2022-09-07T00:13:19.165Z,1.60
2022-09-07T00:16:24.400Z,1.50
2022-09-07T00:19:26.879Z,1.60
2022-09-07T00:22:29.334Z,1.45
2022-09-07T00:25:33.447Z,1.63
2022-09-07T00:28:36.648Z,1.50
2022-09-07T00:31:39.185Z,1.20
2022-09-07T00:34:41.728Z,1.33
2022-09-07T00:37:44.182Z,1.67
2022-09-07T00:40:48.076Z,1.50
2022-09-07T00:43:52.644Z,1.55
2022-09-07T00:46:55.157Z,1.52
2022-09-07T00:50:00.921Z,1.52
2022-09-07T00:53:08.060Z,1.45
2022-09-07T00:56:12.792Z,1.40
2022-09-07T00:59:20.007Z,1.52
2022-09-07T01:02:23.161Z,1.48
2022-09-07T01:05:32.285Z,1.60
2022-09-07T01:08:35.858Z,1.42
2022-09-07T01:11:40.265Z,1.52
2022-09-07T01:14:47.885Z,1.42
2022-09-07T01:18:01.150Z,1.50
2022-09-07T01:21:23.811Z,1.48
2022-09-07T01:24:42.710Z,2.13
2022-09-07T01:28:00.313Z,1.75
2022-09-07T01:31:12.549Z,1.90
2022-09-07T01:34:21.688Z,1.73
2022-09-07T01:37:31.608Z,1.70
2022-09-07T01:40:42.746Z,1.70
2022-09-07T01:43:54.459Z,1.60
2022-09-07T01:47:02.210Z,1.95
2022-09-07T01:50:10.111Z,1.73
2022-09-07T01:53:16.925Z,1.98
2022-09-07T01:56:25.504Z,2.10
2022-09-07T01:59:33.567Z,1.55
2022-09-07T02:02:41.848Z,2.10
2022-09-07T02:05:49.389Z,1.67
2022-09-07T02:08:57.068Z,1.77
2022-09-07T02:12:03.164Z,1.50
2022-09-07T02:15:14.583Z,1.63
2022-09-07T02:18:17.032Z,2.00
2022-09-07T02:21:25.026Z,1.88
2022-09-07T02:24:32.110Z,2.05
2022-09-07T02:27:40.611Z,1.80
2022-09-07T02:30:44.914Z,2.15
2022-09-07T02:33:47.779Z,2.30
2022-09-07T02:36:52.311Z,1.88
2022-09-07T02:39:55.479Z,1.65
2022-09-07T02:42:59.448Z,2.10
2022-09-07T02:46:20.543Z,2.00
2022-09-07T02:49:38.496Z,2.17
2022-09-07T02:52:48.129Z,1.85
2022-09-07T02:56:00.868Z,2.25
2022-09-07T02:59:13.746Z,2.42
2022-09-07T03:02:22.652Z,2.08
2022-09-07T03:05:28.461Z,2.65
2022-09-07T03:08:35.525Z,2.10
2022-09-07T03:11:38.478Z,2.30
2022-09-07T03:14:42.548Z,1.55
2022-09-07T03:17:46.839Z,2.33
2022-09-07T03:20:49.369Z,2.58
2022-09-07T03:23:52.073Z,1.95
2022-09-07T03:26:54.548Z,2.28
2022-09-07T03:29:56.996Z,2.67
2022-09-07T03:33:00.749Z,2.35
2022-09-07T03:36:03.564Z,2.10
2022-09-07T03:39:07.353Z,1.98
2022-09-07T03:42:09.864Z,1.65
2022-09-07T03:45:12.483Z,1.88
2022-09-07T03:48:16.244Z,1.98
2022-09-07T03:51:19.232Z,1.90
2022-09-07T03:54:22.181Z,2.33
2022-09-07T03:57:28.830Z,1.88
2022-09-07T04:00:31.279Z,2.03
2022-09-07T04:03:35.314Z,2.35
2022-09-07T04:06:37.864Z,2.13
2022-09-07T04:09:40.573Z,1.90
2022-09-07T04:12:43.025Z,2.30
2022-09-07T04:15:45.529Z,1.92
2022-09-07T04:18:50.441Z,2.25
2022-09-07T04:21:53.140Z,2.13
2022-09-07T04:24:55.710Z,1.83
2022-09-07T04:27:58.261Z,1.77
2022-09-07T04:31:01.728Z,2.08
2022-09-07T04:34:07.132Z,2.10
2022-09-07T04:37:09.721Z,2.13
2022-09-07T04:40:12.709Z,2.28
2022-09-07T04:43:15.196Z,2.05
2022-09-07T04:46:20.452Z,2.58
2022-09-07T04:49:24.243Z,2.10
2022-09-07T04:52:26.704Z,2.20
2022-09-07T04:55:29.153Z,1.80
2022-09-07T04:58:32.083Z,2.63
2022-09-07T05:01:35.125Z,2.00
2022-09-07T05:04:38.951Z,2.08
2022-09-07T05:07:41.415Z,2.58
2022-09-07T05:10:51.990Z,2.22
2022-09-07T05:13:56.298Z,2.00
2022-09-07T05:16:58.772Z,1.90
2022-09-07T05:20:03.026Z,2.55
2022-09-07T05:23:05.539Z,2.13
2022-09-07T05:26:08.361Z,2.25
2022-09-07T05:32:33.860Z,2.10
2022-09-07T05:35:37.669Z,2.03
2022-09-07T05:38:40.189Z,2.08
2022-09-07T05:41:42.611Z,2.50
2022-09-07T05:44:45.700Z,1.92
2022-09-07T05:47:50.818Z,1.95
2022-09-07T05:50:54.574Z,2.13
2022-09-07T05:53:57.257Z,2.10
2022-09-07T05:56:59.723Z,2.47
2022-09-07T06:00:03.099Z,2.55
2022-09-07T06:03:05.800Z,2.50
2022-09-07T06:06:11.465Z,2.15
2022-09-07T06:09:14.109Z,2.17
2022-09-07T06:12:16.656Z,2.67
2022-09-07T06:15:19.121Z,2.10
2022-09-07T06:18:21.575Z,2.08
2022-09-07T06:21:25.713Z,1.90
2022-09-07T06:24:28.157Z,2.20
2022-09-07T06:27:30.620Z,2.22
2022-09-07T06:30:33.793Z,2.30
2022-09-07T06:33:36.523Z,2.00
2022-09-07T06:36:40.275Z,2.00
2022-09-07T06:39:42.793Z,2.17
2022-09-07T06:42:45.280Z,2.08
2022-09-07T06:45:53.637Z,2.00
2022-09-07T06:48:56.175Z,2.78
2022-09-07T06:51:59.935Z,2.42
2022-09-07T06:55:02.410Z,2.65
2022-09-07T06:58:04.904Z,2.40
2022-09-07T07:01:10.303Z,2.42
2022-09-07T07:04:13.185Z,2.92
2022-09-07T07:07:17.212Z,2.28
2022-09-07T07:10:24.276Z,2.10
2022-09-07T07:13:27.454Z,2.38
2022-09-07T07:16:30.006Z,2.95
2022-09-07T07:19:32.483Z,2.97
2022-09-07T07:22:46.503Z,2.63
2022-09-07T07:25:49.735Z,2.47
2022-09-07T07:29:00.816Z,2.47
2022-09-07T07:32:05.239Z,2.20
2022-09-07T07:35:08.818Z,2.88
2022-09-07T07:48:20.029Z,2.80
2022-09-07T07:51:22.776Z,2.45
2022-09-07T07:54:26.639Z,2.55
2022-09-07T07:57:29.573Z,2.72
2022-09-07T08:00:50.878Z,2.65
2022-09-07T08:03:54.315Z,2.58
2022-09-07T08:06:56.753Z,2.85
2022-09-07T08:10:00.477Z,2.90
2022-09-07T08:13:02.884Z,2.42
2022-09-07T08:16:06.427Z,2.63
2022-09-07T08:19:08.901Z,3.05
2022-09-07T08:22:12.861Z,2.92
2022-09-07T08:25:17.427Z,2.50
2022-09-07T08:28:20.201Z,3.08
2022-09-07T08:31:23.045Z,3.15
2022-09-07T08:34:25.403Z,2.70
2022-09-07T08:37:27.817Z,3.08
2022-09-07T08:40:32.423Z,3.22
2022-09-07T08:43:49.247Z,2.60
2022-09-07T08:46:56.484Z,2.70
2022-09-07T08:50:04.502Z,2.65
2022-09-07T08:53:13.449Z,3.20
2022-09-07T08:56:21.781Z,2.80
2022-09-07T08:59:27.587Z,2.85
2022-09-07T09:02:33.634Z,2.53
2022-09-07T09:05:43.904Z,3.05
2022-09-07T09:09:11.782Z,3.67
2022-09-07T09:12:22.855Z,3.42
2022-09-07T09:15:33.516Z,3.13
2022-09-07T09:18:50.888Z,3.20
2022-09-07T09:22:08.569Z,3.10
2022-09-07T09:25:19.349Z,2.90
2022-09-07T09:28:26.462Z,3.22
2022-09-07T09:31:36.159Z,4.00
2022-09-07T09:34:38.693Z,3.35
2022-09-07T09:37:42.787Z,3.45
2022-09-07T09:40:53.541Z,3.67
2022-09-07T09:43:58.151Z,3.33
2022-09-07T09:54:00.861Z,3.63
2022-09-07T09:57:03.582Z,3.70
2022-09-07T10:00:23.621Z,2.97
2022-09-07T10:06:57.851Z,3.38
2022-09-07T10:10:00.637Z,3.47
2022-09-07T10:13:03.107Z,3.47
2022-09-07T10:16:09.257Z,3.88
2022-09-07T10:19:26.325Z,3.60
2022-09-07T10:22:34.329Z,3.53
2022-09-07T10:25:39.627Z,3.45
2022-09-07T10:32:21.619Z,3.90
2022-09-07T10:35:28.810Z,3.67
2022-09-07T10:38:35.741Z,4.05
2022-09-07T10:41:44.038Z,3.60
2022-09-07T10:45:01.600Z,3.97
2022-09-07T10:48:13.976Z,4.10
2022-09-07T10:51:18.691Z,3.67
2022-09-07T10:54:35.395Z,4.10
2022-09-07T10:57:51.747Z,3.55
2022-09-07T11:01:09.451Z,3.65
2022-09-07T11:04:33.329Z,3.90
2022-09-07T11:07:55.257Z,4.00
2022-09-07T11:11:08.836Z,3.67
2022-09-07T11:14:15.255Z,3.67
2022-09-07T11:17:21.705Z,3.35
2022-09-07T11:20:30.897Z,3.33
2022-09-07T11:23:41.420Z,3.40
2022-09-07T11:26:51.668Z,4.13
2022-09-07T11:30:04.148Z,3.45
2022-09-07T11:33:16.201Z,3.88
2022-09-07T11:36:21.870Z,3.63
2022-09-07T11:39:30.140Z,3.60
2022-09-07T11:42:43.202Z,3.42
2022-09-07T11:45:50.323Z,3.42
2022-09-07T11:48:56.688Z,3.60
2022-09-07T11:52:05.632Z,3.90
2022-09-07T11:55:12.200Z,3.70
2022-09-07T11:58:35.742Z,3.65
2022-09-07T12:01:46.421Z,3.25
2022-09-07T12:05:03.663Z,3.92
2022-09-07T12:08:23.021Z,3.80
2022-09-07T12:11:42.544Z,3.58
2022-09-07T12:14:58.671Z,3.97
2022-09-07T12:18:19.178Z,3.80
2022-09-07T12:21:32.675Z,3.87
2022-09-07T12:24:40.771Z,3.42
2022-09-07T12:27:43.173Z,3.50
2022-09-07T12:31:00.513Z,3.75
2022-09-07T12:34:36.545Z,3.75
2022-09-07T12:37:43.513Z,3.70
2022-09-07T12:41:00.286Z,3.70
2022-09-07T12:44:08.247Z,3.42
2022-09-07T12:47:28.981Z,3.35
2022-09-07T12:50:39.319Z,3.38
2022-09-07T13:00:25.550Z,3.40
2022-09-07T13:03:51.766Z,3.85
2022-09-07T13:07:18.092Z,3.63
2022-09-07T13:10:30.689Z,3.30
2022-09-07T13:17:41.586Z,3.25
2022-09-07T13:20:44.004Z,3.35
2022-09-07T13:27:54.165Z,3.22
2022-09-07T13:31:10.442Z,3.25
2022-09-07T13:34:46.200Z,3.60
2022-09-07T13:37:53.635Z,3.72
2022-09-07T13:41:07.123Z,3.88
2022-09-07T13:44:25.006Z,3.53
2022-09-07T13:47:45.229Z,3.55
2022-09-07T13:50:57.748Z,3.67
2022-09-07T13:54:07.213Z,4.32
2022-09-07T13:57:21.044Z,4.20
2022-09-07T14:00:24.601Z,3.70
2022-09-07T14:03:31.563Z,3.85
2022-09-07T14:06:35.407Z,3.70
2022-09-07T14:09:37.817Z,4.07
2022-09-07T14:12:45.020Z,4.00
2022-09-07T14:15:49.250Z,4.05
2022-09-07T14:18:54.639Z,4.10
2022-09-07T14:21:59.828Z,4.28
2022-09-07T14:25:05.385Z,4.35
2022-09-07T14:28:30.286Z,4.20
2022-09-07T14:31:33.180Z,4.00
2022-09-07T14:34:38.707Z,4.25
2022-09-07T14:37:41.495Z,4.40
2022-09-07T14:40:44.711Z,4.53
2022-09-07T14:43:55.449Z,4.38
2022-09-07T14:47:00.258Z,3.75
2022-09-07T14:50:05.301Z,4.90
2022-09-07T14:56:35.341Z,4.75
2022-09-07T14:59:41.222Z,4.38
2022-09-07T15:02:43.778Z,3.90
2022-09-07T15:05:49.339Z,4.35
2022-09-07T15:08:51.755Z,4.03
2022-09-07T15:12:04.282Z,4.55
2022-09-07T15:15:25.159Z,3.58
2022-09-07T15:18:52.364Z,4.00
2022-09-07T15:21:56.495Z,4.00
2022-09-07T15:24:58.964Z,3.85
2022-09-07T15:28:01.561Z,3.38
2022-09-07T15:34:26.460Z,4.05
2022-09-07T15:41:20.712Z,4.03
2022-09-07T15:44:24.310Z,3.65
2022-09-07T15:47:50.382Z,4.40
2022-09-07T15:50:50.954Z,3.67
2022-09-07T16:00:39.695Z,4.03
2022-09-07T16:03:42.194Z,8.38
2022-09-07T16:06:47.852Z,17.88
2022-09-07T16:09:52.567Z,10.70
2022-09-07T16:13:09.741Z,5.68
2022-09-07T16:16:15.743Z,4.80
2022-09-07T16:19:21.446Z,3.83
2022-09-07T16:25:57.903Z,3.72
2022-09-07T16:29:01.541Z,4.80
2022-09-07T16:35:27.003Z,3.88
2022-09-07T16:38:45.493Z,3.50
2022-09-07T16:41:49.888Z,3.90
2022-09-07T16:44:52.827Z,3.45
2022-09-07T16:47:56.835Z,2.92
2022-09-07T16:51:02.517Z,3.50
2022-09-07T16:54:05.760Z,3.60
2022-09-07T16:57:09.499Z,3.22
2022-09-07T17:00:13.169Z,3.50
2022-09-07T17:03:15.564Z,3.25
2022-09-07T17:06:20.206Z,3.22
2022-09-07T17:09:26.413Z,3.70
2022-09-07T17:12:30.170Z,3.97
2022-09-07T17:15:33.870Z,3.65
2022-09-07T17:22:00.672Z,3.53
2022-09-07T17:25:03.105Z,4.20
2022-09-07T17:28:06.835Z,4.00
2022-09-07T17:32:22.292Z,3.78
2022-09-07T17:34:34.076Z,3.72
2022-09-07T17:37:36.518Z,4.47
2022-09-07T17:40:39.158Z,4.57
2022-09-07T17:43:45.590Z,4.30
2022-09-07T17:46:48.471Z,4.22
2022-09-07T17:49:50.869Z,4.43
2022-09-07T17:52:53.317Z,4.07
2022-09-07T17:55:55.743Z,4.10
2022-09-07T18:02:22.864Z,3.63
2022-09-07T18:05:25.558Z,3.65
2022-09-07T18:08:28.688Z,3.88
2022-09-07T18:11:47.986Z,4.10
2022-09-07T18:14:52.879Z,3.55
2022-09-07T18:17:55.362Z,3.83
2022-09-07T18:20:57.761Z,3.85
2022-09-07T18:24:04.783Z,3.80
2022-09-07T18:27:07.810Z,3.88
2022-09-07T18:30:13.792Z,3.75
2022-09-07T18:33:16.560Z,4.10
2022-09-07T18:36:19.005Z,3.53
2022-09-07T18:39:21.481Z,3.58
2022-09-07T18:42:23.927Z,3.42
2022-09-07T18:45:28.182Z,4.00
2022-09-07T18:48:31.918Z,3.88
2022-09-07T18:52:51.530Z,3.60
2022-09-07T18:54:56.935Z,3.83
2022-09-07T18:58:01.270Z,3.38
2022-09-07T19:01:06.554Z,3.88
2022-09-07T19:04:09.107Z,3.65
2022-09-07T19:07:12.195Z,3.53
2022-09-07T19:10:16.714Z,3.35
2022-09-07T19:13:19.177Z,3.72
2022-09-07T19:16:22.956Z,3.80
2022-09-07T19:19:26.504Z,3.47
2022-09-07T19:22:29.518Z,3.65
2022-09-07T19:25:31.928Z,3.67
2022-09-07T19:28:35.064Z,2.92
2022-09-07T19:31:38.978Z,3.35
2022-09-07T19:34:45.372Z,3.15
2022-09-07T19:37:49.254Z,3.70
2022-09-07T19:40:58.314Z,2.72
2022-09-07T19:44:00.759Z,3.53
2022-09-07T19:47:04.580Z,3.65
2022-09-07T19:50:07.559Z,3.20
2022-09-07T19:53:09.967Z,2.53
2022-09-07T19:56:15.694Z,3.35
2022-09-07T19:59:19.535Z,3.15
2022-09-07T20:02:23.397Z,2.67
2022-09-07T20:05:29.448Z,3.03
2022-09-07T20:08:32.003Z,3.30
2022-09-07T20:11:35.546Z,3.47
2022-09-07T20:14:37.968Z,3.38
2022-09-07T20:17:41.803Z,3.47
2022-09-07T20:20:44.206Z,3.30
2022-09-07T20:23:47.108Z,3.30
2022-09-07T20:26:49.830Z,2.72
2022-09-07T20:29:53.176Z,3.28
2022-09-07T20:32:56.993Z,2.72
2022-09-07T20:36:04.285Z,2.67
2022-09-07T20:39:06.975Z,2.65
2022-09-07T20:42:09.388Z,3.28
2022-09-07T20:45:11.975Z,2.70
2022-09-07T20:48:16.237Z,3.22
2022-09-07T20:51:21.136Z,3.03
2022-09-07T20:54:23.764Z,3.10
2022-09-07T20:57:26.158Z,2.80
2022-09-07T21:00:29.670Z,3.17
2022-09-07T21:03:33.535Z,2.42
2022-09-07T21:06:36.094Z,3.00
2022-09-07T21:09:38.499Z,3.38
2022-09-07T21:12:40.941Z,2.97
2022-09-07T21:15:45.059Z,3.30
2022-09-07T21:18:53.578Z,3.10
2022-09-07T21:21:56.060Z,3.45
2022-09-07T21:24:58.629Z,3.08
2022-09-07T21:28:01.132Z,2.75
2022-09-07T21:31:06.448Z,3.15
2022-09-07T21:34:11.376Z,3.75
2022-09-07T21:37:13.786Z,3.30
2022-09-07T21:40:17.326Z,3.10
2022-09-07T21:43:20.126Z,2.75
2022-09-07T21:46:22.722Z,2.58
2022-09-07T21:49:26.483Z,2.95
2022-09-07T21:52:28.873Z,3.42
2022-09-07T21:55:31.717Z,2.70
2022-09-07T21:58:34.248Z,3.10
2022-09-07T22:01:36.731Z,3.00
2022-09-07T22:04:40.603Z,2.65
2022-09-07T22:07:42.992Z,2.63
2022-09-07T22:10:46.488Z,2.80
2022-09-07T22:13:49.163Z,2.97
2022-09-07T22:16:51.584Z,2.65
2022-09-07T22:19:55.306Z,3.10
2022-09-07T22:22:57.911Z,2.55
2022-09-07T22:26:00.634Z,3.00
2022-09-07T22:29:03.051Z,3.17
2022-09-07T22:32:06.909Z,3.00
2022-09-07T22:35:10.867Z,3.58
2022-09-07T22:38:13.263Z,2.90
2022-09-07T22:41:18.004Z,2.95
2022-09-07T22:44:20.398Z,3.05
2022-09-07T22:47:22.810Z,3.30
2022-09-07T22:50:26.702Z,2.90
2022-09-07T22:53:30.061Z,2.88
2022-09-07T22:56:33.933Z,2.67
2022-09-07T22:59:36.659Z,2.90
2022-09-07T23:02:39.050Z,2.70
2022-09-07T23:05:42.781Z,2.72
2022-09-07T23:08:45.196Z,2.58
2022-09-07T23:11:48.764Z,2.70
2022-09-07T23:14:51.163Z,2.50
2022-09-07T23:17:53.563Z,2.58
2022-09-07T23:21:00.559Z,2.75
2022-09-07T23:24:03.793Z,2.25
2022-09-07T23:27:06.636Z,2.70
2022-09-07T23:30:10.181Z,2.40
2022-09-07T23:33:12.583Z,2.60
2022-09-07T23:36:17.430Z,2.13
2022-09-07T23:39:19.867Z,2.50
2022-09-07T23:42:22.690Z,2.60
2022-09-07T23:45:25.375Z,2.08
2022-09-07T23:48:28.192Z,2.22
2022-09-07T23:51:31.917Z,2.28
2022-09-07T23:54:34.316Z,2.17
2022-09-07T23:57:36.737Z,1.98
